createdAt,value
2019-03-19T00:01:15.270Z,2.02
2019-03-19T00:03:43.238Z,1.68
2019-03-19T00:06:10.956Z,1.57
2019-03-19T00:08:43.720Z,1.36
2019-03-19T00:11:11.804Z,1.35
2019-03-19T00:13:39.661Z,1.36
2019-03-19T00:16:07.863Z,1.32
2019-03-19T00:18:35.296Z,1.38
2019-03-19T00:21:02.652Z,1.18
2019-03-19T00:23:30.849Z,1.16
2019-03-19T00:25:58.546Z,1.09
2019-03-19T00:28:26.252Z,1.08
2019-03-19T00:30:53.692Z,1.06
2019-03-19T00:33:21.197Z,1.12
2019-03-19T00:35:49.440Z,1.17
2019-03-19T00:38:17.277Z,1.18
2019-03-19T00:40:46.394Z,1.21
2019-03-19T00:43:13.828Z,1.23
2019-03-19T00:45:41.704Z,1.12
2019-03-19T00:48:09.263Z,1.06
2019-03-19T00:50:37.446Z,1.13
2019-03-19T00:53:05.007Z,1.00
2019-03-19T00:55:40.764Z,1.03
2019-03-19T00:58:02.357Z,1.17
2019-03-19T01:00:29.769Z,0.94
2019-03-19T01:02:57.648Z,0.94
2019-03-19T01:05:25.452Z,0.75
2019-03-19T01:07:52.979Z,0.74
2019-03-19T01:10:20.858Z,0.69
2019-03-19T01:12:48.602Z,0.57
2019-03-19T01:15:16.218Z,0.54
2019-03-19T01:17:44.142Z,0.72
2019-03-19T01:20:11.871Z,0.54
2019-03-19T01:22:39.591Z,0.56
2019-03-19T01:25:08.745Z,0.73
2019-03-19T01:27:39.498Z,0.87
2019-03-19T01:30:08.889Z,0.89
2019-03-19T01:32:36.901Z,0.69
2019-03-19T01:35:05.218Z,0.78
2019-03-19T01:39:58.370Z,0.34
2019-03-19T01:42:25.744Z,0.24
2019-03-19T01:44:52.894Z,0.30
2019-03-19T01:47:20.657Z,0.33
2019-03-19T01:49:48.975Z,0.20
2019-03-19T01:52:16.874Z,0.11
2019-03-19T01:54:44.424Z,0.05
2019-03-19T01:57:11.837Z,0.09
2019-03-19T01:59:39.719Z,0.03
2019-03-19T02:02:07.142Z,-0.04
2019-03-19T02:04:35.760Z,-0.01
2019-03-19T02:07:04.149Z,-0.15
2019-03-19T02:09:31.844Z,-0.04
2019-03-19T02:11:59.239Z,-0.16
2019-03-19T02:14:27.159Z,-0.34
2019-03-19T02:16:54.989Z,-0.32
2019-03-19T02:19:22.368Z,-0.23
2019-03-19T02:21:49.811Z,-0.16
2019-03-19T02:24:17.451Z,-0.37
2019-03-19T02:26:44.997Z,-0.31
2019-03-19T02:29:12.429Z,-0.30
2019-03-19T02:31:40.224Z,-0.39
2019-03-19T02:34:07.647Z,-0.41
2019-03-19T02:36:35.081Z,-0.55
2019-03-19T02:39:04.377Z,-0.56
2019-03-19T02:41:32.213Z,-0.63
2019-03-19T02:43:59.916Z,-0.71
2019-03-19T02:46:28.014Z,-0.79
2019-03-19T02:48:55.879Z,-0.77
2019-03-19T02:51:24.118Z,-0.76
2019-03-19T02:53:51.672Z,-0.63
2019-03-19T02:56:31.898Z,-0.66
2019-03-19T02:58:49.537Z,-0.74
2019-03-19T03:01:17.263Z,-0.75
2019-03-19T03:03:45.214Z,-0.61
2019-03-19T03:06:13.330Z,-0.83
2019-03-19T03:08:40.666Z,-0.80
2019-03-19T03:11:08.248Z,-0.89
2019-03-19T03:13:36.001Z,-0.89
2019-03-19T03:16:03.820Z,-0.87
2019-03-19T03:18:31.245Z,-0.92
2019-03-19T03:20:59.148Z,-0.80
2019-03-19T03:23:26.585Z,-0.93
2019-03-19T03:25:54.728Z,-1.00
2019-03-19T03:28:22.248Z,-0.96
2019-03-19T03:30:50.474Z,-0.97
2019-03-19T03:33:18.322Z,-1.03
2019-03-19T03:35:46.000Z,-0.84
2019-03-19T03:38:14.672Z,-1.02
2019-03-19T03:40:42.381Z,-1.02
2019-03-19T03:43:10.156Z,-1.03
2019-03-19T03:45:37.774Z,-0.98
2019-03-19T03:48:06.203Z,-0.94
2019-03-19T03:50:34.081Z,-0.92
2019-03-19T03:53:02.047Z,-1.00
2019-03-19T03:55:31.276Z,-1.08
2019-03-19T03:57:59.096Z,-1.06
2019-03-19T04:00:27.640Z,-1.02
2019-03-19T04:02:55.288Z,-1.09
2019-03-19T04:05:23.175Z,-1.09
2019-03-19T04:07:51.189Z,-1.01
2019-03-19T04:10:18.749Z,-1.08
2019-03-19T04:12:46.489Z,-1.11
2019-03-19T04:15:14.361Z,-1.05
2019-03-19T04:17:41.934Z,-1.09
2019-03-19T04:20:10.412Z,-1.14
2019-03-19T04:22:38.688Z,-1.08
2019-03-19T04:25:06.792Z,-0.92
2019-03-19T04:27:35.029Z,-1.10
2019-03-19T04:30:03.281Z,-1.05
2019-03-19T04:32:31.147Z,-1.12
2019-03-19T04:34:59.147Z,-1.18
2019-03-19T04:37:27.364Z,-1.18
2019-03-19T04:39:54.866Z,-1.22
2019-03-19T04:42:22.625Z,-1.26
2019-03-19T04:44:51.027Z,-1.27
2019-03-19T04:47:19.022Z,-1.30
2019-03-19T04:49:47.361Z,-1.33
2019-03-19T04:52:14.817Z,-1.34
2019-03-19T04:54:42.391Z,-1.38
2019-03-19T04:57:09.723Z,-1.42
2019-03-19T04:59:37.312Z,-1.52
2019-03-19T05:02:10.090Z,-1.29
2019-03-19T05:04:37.392Z,-1.52
2019-03-19T05:07:05.237Z,-1.59
2019-03-19T05:09:33.564Z,-1.56
2019-03-19T05:12:01.934Z,-1.61
2019-03-19T05:14:29.591Z,-1.56
2019-03-19T05:16:57.513Z,-1.27
2019-03-19T05:19:25.307Z,-1.49
2019-03-19T05:21:53.233Z,-1.53
2019-03-19T05:24:20.661Z,-1.55
2019-03-19T05:26:48.217Z,-1.56
2019-03-19T05:29:16.249Z,-1.52
2019-03-19T05:31:44.008Z,-1.50
2019-03-19T05:34:11.845Z,-1.55
2019-03-19T05:36:40.163Z,-1.59
2019-03-19T05:39:08.032Z,-1.60
2019-03-19T05:41:35.410Z,-1.60
2019-03-19T05:44:03.166Z,-1.57
2019-03-19T05:46:30.975Z,-1.54
2019-03-19T05:48:59.320Z,-1.54
2019-03-19T05:51:27.506Z,-1.55
2019-03-19T05:53:55.558Z,-1.46
2019-03-19T05:56:23.615Z,-1.48
2019-03-19T05:58:51.566Z,-1.46
2019-03-19T06:01:19.292Z,-1.43
2019-03-19T06:03:46.823Z,-1.41
2019-03-19T06:06:14.740Z,-1.44
2019-03-19T06:08:42.890Z,-1.39
2019-03-19T06:11:10.891Z,-1.31
2019-03-19T06:13:38.821Z,-1.36
2019-03-19T06:16:06.449Z,-1.24
2019-03-19T06:18:35.447Z,-1.12
2019-03-19T06:21:03.709Z,-1.00
2019-03-19T06:23:31.490Z,-0.97
2019-03-19T06:25:59.093Z,-0.89
2019-03-19T06:28:26.791Z,-0.83
2019-03-19T06:30:55.138Z,-0.80
2019-03-19T06:33:23.232Z,-0.74
2019-03-19T06:35:51.461Z,-0.66
2019-03-19T06:38:19.700Z,-0.54
2019-03-19T06:40:47.247Z,-0.41
2019-03-19T06:43:16.206Z,-0.32
2019-03-19T06:45:43.531Z,-0.28
2019-03-19T06:48:11.076Z,-0.21
2019-03-19T06:50:45.213Z,-0.08
2019-03-19T06:53:07.473Z,0.03
2019-03-19T06:55:35.271Z,0.11
2019-03-19T06:58:10.472Z,0.39
2019-03-19T07:00:32.226Z,0.49
2019-03-19T07:02:59.613Z,0.62
2019-03-19T07:05:27.301Z,0.92
2019-03-19T07:07:54.774Z,1.34
2019-03-19T07:10:22.209Z,1.65
2019-03-19T07:12:49.620Z,2.08
2019-03-19T07:15:17.420Z,2.44
2019-03-19T07:17:45.265Z,3.01
2019-03-19T07:20:14.080Z,3.35
2019-03-19T07:22:42.269Z,3.76
2019-03-19T07:25:09.991Z,4.11
2019-03-19T07:27:37.765Z,4.39
2019-03-19T07:30:08.384Z,4.61
2019-03-19T07:32:36.212Z,4.99
2019-03-19T07:35:04.010Z,5.40
2019-03-19T07:37:32.440Z,5.72
2019-03-19T07:39:59.860Z,6.21
2019-03-19T07:42:27.259Z,6.63
2019-03-19T07:44:55.407Z,6.84
2019-03-19T07:47:23.286Z,7.07
2019-03-19T07:49:51.619Z,7.31
2019-03-19T07:52:18.924Z,7.56
2019-03-19T07:54:47.299Z,7.80
2019-03-19T07:57:15.237Z,8.15
2019-03-19T07:59:42.704Z,8.34
2019-03-19T08:02:10.307Z,8.68
2019-03-19T08:04:38.077Z,8.65
2019-03-19T08:07:05.947Z,8.86
2019-03-19T08:09:34.311Z,9.22
2019-03-19T08:12:01.823Z,9.59
2019-03-19T08:14:29.521Z,10.22
2019-03-19T08:16:57.295Z,10.69
2019-03-19T08:19:25.119Z,11.11
2019-03-19T08:21:52.877Z,11.41
2019-03-19T08:24:20.618Z,11.56
2019-03-19T08:26:49.198Z,11.73
2019-03-19T08:29:16.806Z,11.87
2019-03-19T08:31:44.858Z,12.05
2019-03-19T08:34:12.634Z,12.26
2019-03-19T08:36:40.111Z,12.44
2019-03-19T08:39:07.708Z,12.64
2019-03-19T08:41:34.866Z,12.70
2019-03-19T08:44:02.516Z,12.61
2019-03-19T08:46:30.078Z,12.79
2019-03-19T08:48:57.780Z,13.29
2019-03-19T08:51:25.770Z,13.51
2019-03-19T08:53:53.647Z,13.82
2019-03-19T08:56:21.484Z,14.43
2019-03-19T08:58:49.026Z,14.46
2019-03-19T09:01:16.565Z,14.85
2019-03-19T09:03:44.365Z,14.98
2019-03-19T09:06:11.665Z,15.12
2019-03-19T09:08:39.851Z,15.12
2019-03-19T09:11:08.003Z,15.12
2019-03-19T09:13:36.054Z,15.40
2019-03-19T09:16:04.268Z,15.42
2019-03-19T09:18:32.026Z,15.78
2019-03-19T09:20:59.931Z,15.83
2019-03-19T09:23:28.010Z,15.99
2019-03-19T09:25:56.514Z,15.93
2019-03-19T09:28:24.359Z,16.04
2019-03-19T09:30:52.033Z,16.26
2019-03-19T09:33:19.817Z,16.65
2019-03-19T09:35:47.112Z,16.65
2019-03-19T09:38:14.614Z,16.81
2019-03-19T09:40:42.069Z,16.25
2019-03-19T09:43:09.964Z,16.46
2019-03-19T09:45:38.099Z,16.68
2019-03-19T09:48:06.124Z,16.99
2019-03-19T09:50:33.414Z,17.01
2019-03-19T09:53:01.389Z,16.94
2019-03-19T09:55:28.813Z,17.38
2019-03-19T09:57:56.535Z,17.29
2019-03-19T10:00:24.366Z,17.33
2019-03-19T10:02:52.335Z,17.45
2019-03-19T10:05:19.995Z,17.52
2019-03-19T10:07:47.825Z,17.40
2019-03-19T10:10:15.969Z,17.69
2019-03-19T10:12:43.612Z,17.81
2019-03-19T10:15:12.023Z,17.76
2019-03-19T10:17:39.872Z,17.80
2019-03-19T10:20:10.579Z,18.06
2019-03-19T10:22:38.583Z,18.37
2019-03-19T10:25:07.593Z,18.26
2019-03-19T10:27:35.592Z,18.24
2019-03-19T10:30:06.501Z,18.18
2019-03-19T10:32:33.695Z,18.21
2019-03-19T10:35:01.429Z,18.56
2019-03-19T10:37:29.243Z,18.76
2019-03-19T10:39:57.324Z,19.04
2019-03-19T10:42:25.043Z,18.80
2019-03-19T10:44:52.794Z,18.48
2019-03-19T10:47:20.523Z,18.13
2019-03-19T10:49:48.040Z,17.86
2019-03-19T10:52:15.640Z,17.55
2019-03-19T10:54:43.531Z,17.32
2019-03-19T10:57:11.455Z,16.97
2019-03-19T10:59:48.737Z,16.86
2019-03-19T11:02:08.977Z,16.40
2019-03-19T11:04:38.517Z,16.50
2019-03-19T11:07:06.424Z,16.15
2019-03-19T11:09:34.364Z,15.69
2019-03-19T11:12:02.041Z,15.63
2019-03-19T11:14:29.607Z,15.25
2019-03-19T11:16:57.172Z,15.25
2019-03-19T11:19:25.213Z,15.75
2019-03-19T11:21:53.015Z,16.49
2019-03-19T11:24:20.701Z,16.90
2019-03-19T11:26:48.113Z,17.36
2019-03-19T11:29:15.857Z,17.62
2019-03-19T11:31:43.246Z,17.55
2019-03-19T11:34:11.053Z,17.02
2019-03-19T11:36:38.750Z,16.94
2019-03-19T11:39:08.245Z,16.85
2019-03-19T11:41:36.127Z,16.52
2019-03-19T11:44:04.319Z,16.28
2019-03-19T11:46:32.498Z,16.14
2019-03-19T11:49:00.129Z,16.16
2019-03-19T11:51:28.232Z,15.98
2019-03-19T11:53:55.903Z,15.77
2019-03-19T11:56:23.471Z,16.51
2019-03-19T11:58:51.655Z,17.05
2019-03-19T12:01:19.502Z,17.29
2019-03-19T12:03:47.116Z,17.59
2019-03-19T12:06:15.228Z,17.87
2019-03-19T12:08:42.799Z,18.13
2019-03-19T12:11:09.992Z,18.39
2019-03-19T12:13:38.107Z,18.32
2019-03-19T12:16:06.036Z,18.42
2019-03-19T12:18:35.237Z,18.81
2019-03-19T12:21:02.899Z,18.71
2019-03-19T12:23:30.171Z,18.59
2019-03-19T12:25:58.551Z,18.59
2019-03-19T12:28:25.896Z,18.60
2019-03-19T12:30:54.917Z,18.53
2019-03-19T12:33:28.857Z,18.46
2019-03-19T12:35:57.857Z,18.49
2019-03-19T12:38:25.594Z,18.30
2019-03-19T12:40:53.608Z,18.66
2019-03-19T12:43:20.782Z,18.49
2019-03-19T12:45:49.047Z,18.18
2019-03-19T12:48:16.822Z,18.11
2019-03-19T12:50:44.537Z,18.35
2019-03-19T12:53:12.111Z,17.94
2019-03-19T12:55:39.999Z,17.36
2019-03-19T12:58:07.545Z,16.92
2019-03-19T13:00:35.233Z,16.85
2019-03-19T13:03:03.040Z,16.52
2019-03-19T13:05:30.573Z,16.06
2019-03-19T13:07:58.583Z,15.75
2019-03-19T13:10:27.117Z,15.64
2019-03-19T13:12:55.226Z,15.70
2019-03-19T13:15:22.778Z,15.29
2019-03-19T13:17:50.555Z,14.99
2019-03-19T13:20:18.499Z,14.93
2019-03-19T13:22:46.433Z,14.70
2019-03-19T13:25:15.474Z,14.30
2019-03-19T13:27:44.044Z,14.33
2019-03-19T13:30:18.892Z,14.33
2019-03-19T13:32:46.823Z,14.57
2019-03-19T13:35:14.483Z,14.29
2019-03-19T13:37:42.317Z,14.42
2019-03-19T13:40:12.380Z,14.24
2019-03-19T13:42:40.238Z,14.10
2019-03-19T13:45:08.526Z,14.17
2019-03-19T13:47:36.220Z,14.02
2019-03-19T13:50:05.615Z,14.08
2019-03-19T13:52:33.043Z,13.96
2019-03-19T13:55:01.194Z,13.87
2019-03-19T13:57:29.025Z,13.84
2019-03-19T13:59:56.700Z,13.90
2019-03-19T14:02:24.229Z,13.74
2019-03-19T14:04:52.143Z,13.50
2019-03-19T14:07:19.567Z,13.35
2019-03-19T14:09:47.434Z,13.29
2019-03-19T14:12:14.880Z,12.85
2019-03-19T14:14:42.782Z,12.64
2019-03-19T14:17:10.349Z,12.77
2019-03-19T14:19:37.762Z,12.90
2019-03-19T14:22:05.907Z,12.81
2019-03-19T14:24:33.719Z,12.55
2019-03-19T14:27:01.967Z,12.64
2019-03-19T14:29:29.584Z,12.40
2019-03-19T14:31:57.544Z,12.54
2019-03-19T14:34:25.762Z,12.59
2019-03-19T14:36:53.594Z,12.74
2019-03-19T14:39:22.077Z,12.71
2019-03-19T14:41:50.090Z,12.74
2019-03-19T14:44:17.993Z,12.62
2019-03-19T14:46:45.883Z,12.66
2019-03-19T14:49:14.332Z,12.58
2019-03-19T14:51:42.494Z,12.84
2019-03-19T14:54:10.724Z,12.87
2019-03-19T14:56:38.821Z,12.90
2019-03-19T14:59:06.765Z,12.68
2019-03-19T15:01:34.181Z,12.71
2019-03-19T15:04:01.589Z,12.49
2019-03-19T15:06:29.496Z,12.59
2019-03-19T15:08:57.046Z,12.54
2019-03-19T15:11:24.934Z,12.52
2019-03-19T15:13:55.176Z,12.62
2019-03-19T15:16:22.375Z,12.47
2019-03-19T15:18:49.903Z,12.21
2019-03-19T15:21:17.335Z,12.09
2019-03-19T15:23:45.778Z,11.94
2019-03-19T15:26:13.307Z,11.64
2019-03-19T15:28:41.178Z,11.89
2019-03-19T15:31:09.013Z,11.95
2019-03-19T15:33:37.009Z,11.65
2019-03-19T15:36:05.086Z,11.46
2019-03-19T15:38:33.072Z,11.54
2019-03-19T15:41:01.022Z,11.46
2019-03-19T15:43:28.337Z,11.26
2019-03-19T15:45:55.751Z,11.28
2019-03-19T15:48:23.469Z,11.30
2019-03-19T15:50:50.761Z,11.31
2019-03-19T15:53:19.105Z,11.23
2019-03-19T15:55:46.945Z,11.10
2019-03-19T15:58:15.009Z,11.04
2019-03-19T16:00:43.281Z,11.04
2019-03-19T16:03:11.479Z,10.99
2019-03-19T16:05:39.187Z,10.99
2019-03-19T16:08:07.128Z,10.88
2019-03-19T16:10:34.821Z,10.92
2019-03-19T16:13:02.638Z,10.68
2019-03-19T16:15:30.790Z,10.79
2019-03-19T16:17:58.976Z,10.81
2019-03-19T16:20:27.274Z,10.60
2019-03-19T16:22:55.121Z,10.51
2019-03-19T16:25:23.027Z,10.45
2019-03-19T16:27:51.329Z,10.34
2019-03-19T16:30:19.225Z,10.43
2019-03-19T16:32:47.182Z,10.23
2019-03-19T16:35:15.972Z,10.25
2019-03-19T16:37:43.783Z,9.97
2019-03-19T16:40:16.444Z,9.93
2019-03-19T16:42:44.926Z,9.83
2019-03-19T16:45:12.813Z,9.87
2019-03-19T16:47:40.225Z,9.70
2019-03-19T16:50:09.803Z,9.77
2019-03-19T16:52:37.251Z,9.73
2019-03-19T16:55:05.144Z,9.52
2019-03-19T16:57:32.825Z,9.54
2019-03-19T17:00:00.959Z,9.51
2019-03-19T17:02:29.434Z,9.49
2019-03-19T17:04:57.321Z,9.49
2019-03-19T17:07:25.199Z,9.25
2019-03-19T17:09:52.739Z,9.09
2019-03-19T17:12:20.353Z,9.02
2019-03-19T17:14:48.278Z,8.81
2019-03-19T17:17:16.960Z,8.87
2019-03-19T17:19:44.884Z,8.87
2019-03-19T17:22:12.643Z,8.84
2019-03-19T17:24:40.433Z,8.72
2019-03-19T17:27:08.409Z,8.63
2019-03-19T17:29:43.038Z,8.56
2019-03-19T17:32:13.145Z,8.33
2019-03-19T17:34:39.856Z,8.27
2019-03-19T17:37:07.618Z,8.35
2019-03-19T17:39:38.456Z,8.15
2019-03-19T17:42:06.311Z,8.11
2019-03-19T17:44:34.266Z,8.10
2019-03-19T17:47:01.996Z,8.13
2019-03-19T17:49:34.044Z,7.96
2019-03-19T17:52:04.427Z,7.99
2019-03-19T17:54:36.987Z,7.82
2019-03-19T17:57:05.127Z,7.78
2019-03-19T17:59:32.993Z,7.71
2019-03-19T18:02:01.264Z,7.37
2019-03-19T18:04:29.255Z,7.26
2019-03-19T18:06:57.333Z,7.45
2019-03-19T18:09:25.623Z,7.17
2019-03-19T18:11:53.685Z,7.33
2019-03-19T18:14:21.111Z,7.31
2019-03-19T18:16:48.847Z,7.16
2019-03-19T18:19:16.763Z,7.15
2019-03-19T18:21:44.065Z,6.95
2019-03-19T18:24:12.233Z,6.94
2019-03-19T18:26:41.681Z,7.00
2019-03-19T18:29:10.605Z,6.92
2019-03-19T18:31:39.034Z,6.72
2019-03-19T18:34:10.454Z,6.53
2019-03-19T18:36:36.228Z,6.45
2019-03-19T18:39:07.310Z,6.51
2019-03-19T18:41:34.909Z,6.59
2019-03-19T18:44:02.746Z,6.31
2019-03-19T18:46:31.184Z,6.23
2019-03-19T18:48:59.350Z,6.24
2019-03-19T18:51:27.224Z,6.41
2019-03-19T18:53:54.666Z,6.19
2019-03-19T18:56:22.600Z,6.02
2019-03-19T18:58:50.233Z,5.77
2019-03-19T19:01:17.996Z,5.79
2019-03-19T19:03:45.970Z,5.77
2019-03-19T19:06:13.529Z,5.75
2019-03-19T19:08:40.986Z,5.71
2019-03-19T19:11:08.941Z,5.65
2019-03-19T19:13:36.542Z,5.54
2019-03-19T19:16:04.992Z,5.27
2019-03-19T19:18:32.399Z,4.97
2019-03-19T19:20:59.554Z,4.91
2019-03-19T19:23:27.887Z,4.89
2019-03-19T19:25:55.773Z,4.93
2019-03-19T19:28:24.124Z,5.11
2019-03-19T19:30:51.816Z,5.08
2019-03-19T19:33:19.991Z,5.11
2019-03-19T19:35:47.728Z,4.92
2019-03-19T19:38:17.319Z,4.94
2019-03-19T19:40:47.465Z,4.87
2019-03-19T19:43:15.119Z,4.64
2019-03-19T19:45:43.209Z,4.76
2019-03-19T19:48:11.258Z,4.85
2019-03-19T19:50:39.437Z,4.73
2019-03-19T19:53:06.863Z,4.47
2019-03-19T19:55:35.084Z,4.43
2019-03-19T19:58:03.093Z,4.52
2019-03-19T20:00:30.732Z,4.47
2019-03-19T20:03:11.506Z,4.34
2019-03-19T20:05:31.286Z,4.28
2019-03-19T20:08:09.685Z,4.28
2019-03-19T20:10:37.763Z,4.06
2019-03-19T20:13:05.669Z,3.95
2019-03-19T20:15:33.926Z,3.90
2019-03-19T20:18:02.272Z,3.90
2019-03-19T20:20:29.859Z,3.81
2019-03-19T20:22:58.132Z,3.89
2019-03-19T20:25:26.359Z,3.71
2019-03-19T20:27:55.076Z,3.55
2019-03-19T20:30:22.682Z,3.55
2019-03-19T20:32:50.177Z,3.56
2019-03-19T20:35:18.005Z,3.75
2019-03-19T20:37:45.304Z,3.78
2019-03-19T20:40:13.506Z,3.73
2019-03-19T20:42:41.720Z,3.56
2019-03-19T20:45:10.237Z,3.37
2019-03-19T20:47:37.970Z,3.30
2019-03-19T20:50:12.625Z,3.11
2019-03-19T20:52:44.821Z,2.97
2019-03-19T20:55:12.759Z,2.84
2019-03-19T20:57:40.389Z,2.69
2019-03-19T21:00:12.007Z,2.71
2019-03-19T21:02:39.627Z,2.71
2019-03-19T21:05:07.552Z,2.69
2019-03-19T21:07:35.202Z,2.70
2019-03-19T21:10:04.521Z,2.78
2019-03-19T21:12:36.467Z,2.65
2019-03-19T21:15:05.210Z,2.59
2019-03-19T21:17:32.650Z,2.62
2019-03-19T21:20:00.498Z,2.44
2019-03-19T21:22:29.069Z,2.23
2019-03-19T21:24:57.008Z,2.51
2019-03-19T21:27:24.900Z,2.48
2019-03-19T21:29:53.917Z,2.43
2019-03-19T21:32:21.869Z,2.38
2019-03-19T21:34:49.882Z,2.25
2019-03-19T21:37:17.295Z,2.33
2019-03-19T21:39:45.112Z,2.13
2019-03-19T21:42:12.877Z,1.87
2019-03-19T21:44:40.555Z,2.09
2019-03-19T21:47:10.142Z,2.07
2019-03-19T21:49:37.887Z,2.10
2019-03-19T21:52:05.545Z,1.97
2019-03-19T21:54:33.084Z,1.93
2019-03-19T21:57:00.951Z,2.05
2019-03-19T21:59:29.022Z,2.09
2019-03-19T22:01:59.014Z,2.02
2019-03-19T22:04:26.318Z,1.86
2019-03-19T22:06:56.978Z,1.91
2019-03-19T22:09:24.567Z,1.76
2019-03-19T22:11:52.268Z,1.75
2019-03-19T22:14:20.547Z,1.69
2019-03-19T22:16:48.101Z,1.61
2019-03-19T22:19:15.868Z,1.59
2019-03-19T22:21:43.835Z,1.37
2019-03-19T22:24:11.416Z,1.39
2019-03-19T22:26:38.834Z,1.67
2019-03-19T22:29:06.660Z,1.51
2019-03-19T22:31:35.002Z,1.41
2019-03-19T22:34:14.242Z,1.36
2019-03-19T22:36:41.421Z,1.24
2019-03-19T22:39:08.960Z,1.21
2019-03-19T22:41:37.084Z,1.22
2019-03-19T22:44:05.261Z,1.23
2019-03-19T22:46:33.080Z,1.18
2019-03-19T22:49:02.584Z,1.01
2019-03-19T22:51:30.565Z,1.08
2019-03-19T22:53:58.166Z,1.01
2019-03-19T22:56:28.069Z,1.02
2019-03-19T22:58:56.126Z,0.97
2019-03-19T23:01:27.333Z,0.97
2019-03-19T23:03:55.756Z,0.85
2019-03-19T23:06:23.174Z,0.83
2019-03-19T23:08:50.829Z,0.85
2019-03-19T23:11:18.291Z,0.76
2019-03-19T23:13:47.211Z,0.89
2019-03-19T23:16:15.431Z,0.88
2019-03-19T23:18:42.965Z,0.71
2019-03-19T23:21:11.374Z,0.79
2019-03-19T23:23:39.243Z,0.81
2019-03-19T23:26:06.765Z,0.76
2019-03-19T23:28:34.799Z,0.82
2019-03-19T23:31:03.013Z,0.73
2019-03-19T23:33:30.700Z,0.69
2019-03-19T23:35:58.434Z,0.60
2019-03-19T23:38:25.945Z,0.65
2019-03-19T23:40:55.363Z,0.82
2019-03-19T23:43:23.154Z,0.73
2019-03-19T23:45:50.643Z,0.64
2019-03-19T23:48:19.072Z,0.67
2019-03-19T23:50:46.993Z,0.62
2019-03-19T23:53:14.642Z,0.57
2019-03-19T23:55:42.408Z,0.58
2019-03-19T23:58:12.069Z,0.42
